Time;durP1;ratioP1;P1;durP2;ratioP2;P2;SDS_P1;SDS_P2;PMS_P1;PMS_P2;Temp;Humidity;BMP_temperature;BMP_pressure;BME280_temperature;BME280_humidity;BME280_pressure;Samples;Min_cycle;Max_cycle;Signal;HPM_P1;HPM_P2
2021/01/29 00:00:15;;;;;;;8.57;5.90;;;;;;;;;;10210758;28;20081;-71
2021/01/29 00:05:12;;;;;;;6.63;5.25;;;;;;;;;;10212156;28;20084;-71
2021/01/29 00:10:11;;;;;;;8.95;5.95;;;;;;;;;;10212402;28;20503;-70
2021/01/29 00:15:09;;;;;;;8.27;6.78;;;;;;;;;;10209926;28;20073;-71
2021/01/29 00:20:10;;;;;;;8.50;6.63;;;;;;;;;;10213608;28;20081;-70
2021/01/29 00:25:10;;;;;;;13.23;7.35;;;;;;;;;;10209452;28;20522;-70
2021/01/29 00:30:08;;;;;;;8.20;5.40;;;;;;;;;;10213718;28;20066;-71
2021/01/29 00:35:05;;;;;;;16.83;9.70;;;;;;;;;;10212229;28;20073;-71
2021/01/29 00:40:04;;;;;;;7.70;5.68;;;;;;;;;;10213017;28;20089;-70
2021/01/29 00:45:02;;;;;;;5.93;5.05;;;;;;;;;;10211570;28;20080;-71
2021/01/29 00:50:00;;;;;;;7.85;6.43;;;;;;;;;;10212959;28;20082;-71
2021/01/29 00:54:57;;;;;;;7.22;5.57;;;;;;;;;;10220888;28;20061;-71
2021/01/29 00:59:56;;;;;;;6.47;5.85;;;;;;;;;;10217134;28;20068;-72
2021/01/29 01:04:59;;;;;;;6.68;5.47;;;;;;;;;;10232525;28;20519;-72
2021/01/29 01:09:57;;;;;;;6.97;5.68;;;;;;;;;;10219001;28;20088;-72
2021/01/29 01:15:17;;;;;;;13.02;8.50;;;;;;;;;;10214487;28;20073;-71
2021/01/29 01:20:18;;;;;;;6.97;6.25;;;;;;;;;;10214647;28;20100;-73
2021/01/29 01:25:16;;;;;;;5.28;4.35;;;;;;;;;;10215421;28;20073;-71
2021/01/29 01:30:15;;;;;;;6.82;4.55;;;;;;;;;;10217969;28;20046;-72
2021/01/29 01:35:17;;;;;;;6.97;4.93;;;;;;;;;;10213199;28;20124;-72
2021/01/29 01:40:15;;;;;;;6.53;5.72;;;;;;;;;;10219589;28;20068;-71
2021/01/29 01:45:31;;;;;;;8.70;5.60;;;;;;;;;;10217694;28;20084;-72
2021/01/29 01:50:33;;;;;;;8.30;6.10;;;;;;;;;;10217083;28;20080;-71
2021/01/29 01:55:33;;;;;;;6.72;5.30;;;;;;;;;;10215883;28;20125;-72
2021/01/29 02:00:56;;;;;;;7.90;5.28;;;;;;;;;;10216131;28;20078;-71
2021/01/29 02:06:01;;;;;;;7.47;5.32;;;;;;;;;;10212261;28;20085;-70
2021/01/29 02:11:22;;;;;;;5.35;4.43;;;;;;;;;;10214517;28;20073;-71
2021/01/29 02:16:53;;;;;;;6.15;4.65;;;;;;;;;;10216734;28;20096;-70
2021/01/29 02:22:26;;;;;;;5.90;4.60;;;;;;;;;;10214496;28;20108;-71
2021/01/29 02:27:47;;;;;;;6.05;4.35;;;;;;;;;;10215849;28;20073;-71
2021/01/29 02:33:08;;;;;;;6.55;5.05;;;;;;;;;;10214512;28;20667;-71
2021/01/29 02:38:33;;;;;;;5.75;4.45;;;;;;;;;;10213930;28;20451;-71
2021/01/29 02:43:46;;;;;;;4.47;4.03;;;;;;;;;;10214703;28;20089;-71
2021/01/29 02:49:04;;;;;;;5.95;4.30;;;;;;;;;;10218040;28;20069;-71
2021/01/29 02:54:23;;;;;;;5.25;4.18;;;;;;;;;;10214018;28;20480;-71
2021/01/29 02:59:44;;;;;;;5.13;3.92;;;;;;;;;;10215217;28;20068;-71
2021/01/29 03:05:04;;;;;;;4.40;3.78;;;;;;;;;;10208516;28;20091;-72
2021/01/29 03:10:05;;;;;;;4.68;4.10;;;;;;;;;;10209905;28;20084;-70
2021/01/29 03:15:25;;;;;;;4.32;3.50;;;;;;;;;;10211569;28;20092;-71
2021/01/29 03:20:44;;;;;;;5.28;4.10;;;;;;;;;;10218290;28;20530;-71
2021/01/29 03:26:04;;;;;;;4.38;3.97;;;;;;;;;;10216927;28;20480;-71
2021/01/29 03:31:21;;;;;;;5.78;4.22;;;;;;;;;;10220822;28;20061;-71
2021/01/29 03:36:42;;;;;;;4.32;3.53;;;;;;;;;;10219361;28;20077;-70
2021/01/29 03:42:02;;;;;;;5.57;4.53;;;;;;;;;;10217431;28;20080;-70
2021/01/29 03:47:20;;;;;;;4.95;4.10;;;;;;;;;;10216596;28;20462;-71
2021/01/29 03:52:40;;;;;;;22.65;10.55;;;;;;;;;;10215435;28;20085;-71
2021/01/29 03:58:16;;;;;;;5.13;3.92;;;;;;;;;;10202388;28;20096;-71
2021/01/29 04:03:34;;;;;;;4.47;3.30;;;;;;;;;;10216549;28;20088;-71
2021/01/29 04:08:54;;;;;;;5.78;4.47;;;;;;;;;;10215159;28;20108;-71
2021/01/29 04:14:14;;;;;;;203.07;103.65;;;;;;;;;;10213792;28;20458;-70
2021/01/29 04:19:14;;;;;;;404.58;174.32;;;;;;;;;;10211973;28;20529;-71
2021/01/29 04:24:13;;;;;;;506.02;217.30;;;;;;;;;;10210307;28;20458;-70
2021/01/29 04:29:13;;;;;;;218.88;90.88;;;;;;;;;;10217696;28;20077;-70
2021/01/29 04:34:14;;;;;;;187.25;86.88;;;;;;;;;;10202396;28;20069;-70
2021/01/29 04:39:12;;;;;;;152.65;72.88;;;;;;;;;;10212830;28;20077;-69
2021/01/29 04:44:18;;;;;;;150.95;70.55;;;;;;;;;;10214154;28;20069;-70
2021/01/29 04:49:21;;;;;;;85.47;42.50;;;;;;;;;;10210968;28;20076;-71
2021/01/29 04:54:33;;;;;;;114.10;52.65;;;;;;;;;;10214048;28;20096;-70
2021/01/29 04:59:34;;;;;;;82.15;43.00;;;;;;;;;;10210371;28;20072;-70
2021/01/29 05:05:03;;;;;;;77.28;36.45;;;;;;;;;;10202677;28;20554;-70
2021/01/29 05:10:24;;;;;;;64.68;30.98;;;;;;;;;;10201140;28;20153;-70
2021/01/29 05:15:31;;;;;;;100.88;48.97;;;;;;;;;;10205676;28;20072;-70
2021/01/29 05:20:43;;;;;;;127.68;47.58;;;;;;;;;;10191855;28;631215;-71
2021/01/29 05:26:11;;;;;;;158.63;64.82;;;;;;;;;;10195047;28;20073;-70
2021/01/29 05:31:25;;;;;;;184.98;75.13;;;;;;;;;;10210888;28;20073;-70
2021/01/29 05:36:27;;;;;;;127.30;54.85;;;;;;;;;;10215536;28;20072;-70
2021/01/29 05:41:46;;;;;;;139.70;57.85;;;;;;;;;;10217542;28;20533;-69
2021/01/29 05:46:52;;;;;;;110.20;48.08;;;;;;;;;;10190898;28;20324;-70
2021/01/29 05:52:05;;;;;;;144.43;65.10;;;;;;;;;;10215476;28;20463;-70
2021/01/29 05:57:19;;;;;;;64.07;32.97;;;;;;;;;;10206657;28;20068;-70
2021/01/29 06:02:25;;;;;;;55.92;28.52;;;;;;;;;;10226532;28;20042;-70
2021/01/29 06:07:32;;;;;;;68.68;31.08;;;;;;;;;;10215891;28;20073;-70
2021/01/29 06:12:49;;;;;;;116.15;50.53;;;;;;;;;;10216775;28;20061;-71
2021/01/29 06:18:16;;;;;;;55.53;27.17;;;;;;;;;;10214340;28;20081;-71
2021/01/29 06:23:31;;;;;;;79.43;33.00;;;;;;;;;;10215155;28;20543;-70
2021/01/29 06:28:41;;;;;;;115.78;59.95;;;;;;;;;;10214666;28;20475;-70
2021/01/29 06:33:56;;;;;;;65.15;30.42;;;;;;;;;;10215377;28;20080;-69
2021/01/29 06:39:02;;;;;;;71.63;34.35;;;;;;;;;;10215668;28;20663;-69
2021/01/29 06:44:11;;;;;;;83.57;35.65;;;;;;;;;;10214933;28;20079;-69
2021/01/29 06:49:26;;;;;;;64.13;29.75;;;;;;;;;;10212680;28;20077;-70
2021/01/29 06:54:41;;;;;;;47.25;26.98;;;;;;;;;;10212273;28;20061;-69
2021/01/29 06:59:56;;;;;;;42.90;27.77;;;;;;;;;;10215518;28;20066;-70
2021/01/29 07:05:09;;;;;;;57.50;34.60;;;;;;;;;;10214557;28;20077;-70
2021/01/29 07:10:14;;;;;;;64.95;38.33;;;;;;;;;;10212184;28;20065;-70
2021/01/29 07:15:11;;;;;;;;;;;;;;;;;;10212569;28;20107;-70
2021/01/29 07:20:32;;;;;;;36.33;19.90;;;;;;;;;;10215222;28;20410;-70
2021/01/29 07:25:53;;;;;;;47.92;22.98;;;;;;;;;;10210351;28;20060;-70
2021/01/29 07:31:13;;;;;;;44.05;22.60;;;;;;;;;;10211665;28;20081;-70
2021/01/29 07:36:37;;;;;;;31.67;19.52;;;;;;;;;;10210425;28;20085;-70
2021/01/29 07:53:27;;;;;;;32.58;21.23;;;;;;;;;;10212337;28;20061;-69
2021/01/29 07:58:29;;;;;;;27.17;16.97;;;;;;;;;;10212438;28;20065;-70
2021/01/29 08:03:35;;;;;;;36.63;20.95;;;;;;;;;;10212288;28;20062;-70
2021/01/29 08:08:36;;;;;;;20.48;13.25;;;;;;;;;;10210067;28;20141;-70
2021/01/29 08:13:39;;;;;;;36.53;19.20;;;;;;;;;;10210076;28;20072;-70
2021/01/29 08:18:57;;;;;;;48.35;28.27;;;;;;;;;;10209404;28;20092;-70
2021/01/29 08:24:00;;;;;;;26.13;17.88;;;;;;;;;;10207556;28;20081;-70
2021/01/29 08:29:16;;;;;;;28.83;19.27;;;;;;;;;;10210280;28;20065;-70
2021/01/29 08:34:41;;;;;;;53.22;30.58;;;;;;;;;;10209913;28;20088;-70
2021/01/29 08:39:47;;;;;;;124.05;77.18;;;;;;;;;;10209542;28;20082;-70
2021/01/29 08:45:02;;;;;;;258.48;124.15;;;;;;;;;;10212455;28;20073;-71
2021/01/29 08:50:13;;;;;;;95.13;58.50;;;;;;;;;;10208955;28;20495;-70
2021/01/29 08:55:15;;;;;;;71.88;45.10;;;;;;;;;;10211670;28;20073;-70
2021/01/29 09:00:20;;;;;;;54.28;37.53;;;;;;;;;;10213346;28;20069;-70
2021/01/29 09:05:19;;;;;;;58.60;37.17;;;;;;;;;;10208945;28;20326;-70
2021/01/29 09:10:20;;;;;;;38.97;27.55;;;;;;;;;;10208679;28;20069;-71
2021/01/29 09:15:22;;;;;;;169.20;108.65;;;;;;;;;;10216001;28;20443;-71
2021/01/29 09:20:24;;;;;;;146.13;90.63;;;;;;;;;;10216334;28;20076;-70
2021/01/29 09:25:26;;;;;;;120.85;82.45;;;;;;;;;;10215343;28;20525;-70
2021/01/29 09:30:27;;;;;;;194.30;125.10;;;;;;;;;;10220044;28;20092;-71
2021/01/29 09:35:39;;;;;;;45.00;32.00;;;;;;;;;;10218456;28;20077;-71
2021/01/29 09:40:44;;;;;;;42.45;30.05;;;;;;;;;;10217652;28;20080;-70
2021/01/29 09:45:43;;;;;;;65.32;42.90;;;;;;;;;;10214056;28;20073;-70
2021/01/29 09:50:41;;;;;;;63.90;29.85;;;;;;;;;;10214242;28;20605;-71
2021/01/29 09:55:44;;;;;;;202.18;83.75;;;;;;;;;;10218180;28;20069;-71
2021/01/29 10:00:42;;;;;;;740.45;315.30;;;;;;;;;;10213372;28;20057;-69
2021/01/29 10:05:46;;;;;;;585.33;219.43;;;;;;;;;;10211668;28;20144;-71
2021/01/29 10:10:56;;;;;;;596.28;249.60;;;;;;;;;;10214243;28;20514;-71
2021/01/29 10:16:08;;;;;;;141.23;62.95;;;;;;;;;;10215130;28;20073;-70
2021/01/29 10:21:10;;;;;;;229.98;102.20;;;;;;;;;;10213341;28;20498;-70
2021/01/29 10:26:16;;;;;;;483.23;220.25;;;;;;;;;;10211859;28;20499;-70
2021/01/29 10:31:15;;;;;;;290.63;128.27;;;;;;;;;;10216092;28;20073;-70
2021/01/29 10:36:17;;;;;;;692.22;312.08;;;;;;;;;;10215506;28;20070;-70
2021/01/29 10:41:19;;;;;;;240.20;106.15;;;;;;;;;;10215475;28;20085;-70
2021/01/29 10:46:27;;;;;;;369.55;147.85;;;;;;;;;;10215579;28;20080;-71
2021/01/29 10:51:35;;;;;;;421.23;181.10;;;;;;;;;;10214104;28;20084;-72
2021/01/29 10:56:41;;;;;;;238.63;110.22;;;;;;;;;;10212587;28;20080;-71
2021/01/29 11:01:40;;;;;;;447.42;198.45;;;;;;;;;;10214273;28;20072;-71
2021/01/29 11:06:40;;;;;;;310.42;128.25;;;;;;;;;;10214645;28;20078;-71
2021/01/29 11:11:40;;;;;;;211.52;85.32;;;;;;;;;;10214725;28;20064;-71
2021/01/29 11:16:45;;;;;;;102.28;49.72;;;;;;;;;;10213768;28;20061;-71
2021/01/29 11:21:47;;;;;;;146.13;71.43;;;;;;;;;;10212671;28;20045;-71
2021/01/29 11:26:49;;;;;;;151.82;71.45;;;;;;;;;;10214454;28;20491;-71
2021/01/29 11:31:48;;;;;;;239.98;113.00;;;;;;;;;;10212903;28;20072;-71
2021/01/29 11:36:49;;;;;;;287.85;134.05;;;;;;;;;;10213815;28;20065;-70
2021/01/29 11:41:51;;;;;;;276.67;149.00;;;;;;;;;;10213083;28;20117;-70
2021/01/29 11:46:52;;;;;;;203.73;102.97;;;;;;;;;;10209782;28;20085;-70
2021/01/29 11:51:58;;;;;;;213.70;94.47;;;;;;;;;;10209753;28;20471;-72
2021/01/29 11:57:01;;;;;;;323.98;142.10;;;;;;;;;;10210133;28;20061;-71
2021/01/29 12:02:03;;;;;;;209.73;94.45;;;;;;;;;;10210167;28;20065;-72
2021/01/29 12:07:02;;;;;;;186.52;87.05;;;;;;;;;;10213558;28;20077;-72
2021/01/29 12:12:02;;;;;;;137.20;56.33;;;;;;;;;;10212491;28;20506;-72
2021/01/29 12:17:02;;;;;;;95.45;54.30;;;;;;;;;;10213433;28;20073;-72
2021/01/29 12:22:09;;;;;;;94.65;48.65;;;;;;;;;;10211793;28;20085;-71
2021/01/29 12:27:08;;;;;;;196.52;92.90;;;;;;;;;;10212556;28;20078;-71
2021/01/29 12:32:20;;;;;;;91.72;45.20;;;;;;;;;;10212019;28;20444;-71
2021/01/29 12:37:21;;;;;;;78.72;41.67;;;;;;;;;;10197578;28;20041;-70
2021/01/29 12:42:21;;;;;;;39.22;28.00;;;;;;;;;;10208838;28;20566;-71
2021/01/29 12:47:26;;;;;;;74.78;45.70;;;;;;;;;;10211393;28;20498;-71
2021/01/29 12:52:24;;;;;;;;;;;;;;;;;;10217630;28;20062;-71
2021/01/29 12:57:23;;;;;;;16.40;12.70;;;;;;;;;;10221019;28;19957;-71
2021/01/29 13:02:27;;;;;;;36.97;22.20;;;;;;;;;;10216392;28;20069;-71
2021/01/29 13:07:28;;;;;;;93.00;51.75;;;;;;;;;;10216945;28;20069;-71
2021/01/29 13:12:38;;;;;;;59.90;35.60;;;;;;;;;;10219889;28;20079;-71
2021/01/29 13:17:38;;;;;;;46.25;27.85;;;;;;;;;;10219615;28;20077;-71
2021/01/29 13:22:41;;;;;;;98.80;59.63;;;;;;;;;;10218375;28;20077;-71
2021/01/29 13:27:41;;;;;;;64.55;38.15;;;;;;;;;;10215508;28;20081;-71
2021/01/29 13:32:39;;;;;;;101.85;54.72;;;;;;;;;;10219297;28;20452;-71
2021/01/29 13:37:37;;;;;;;76.35;41.83;;;;;;;;;;10217802;28;20069;-71
2021/01/29 13:42:36;;;;;;;42.45;26.52;;;;;;;;;;10217541;28;20061;-71
2021/01/29 13:47:36;;;;;;;53.90;34.33;;;;;;;;;;10218131;28;20474;-71
2021/01/29 13:52:36;;;;;;;82.60;46.67;;;;;;;;;;10216375;28;20080;-70
2021/01/29 13:57:34;;;;;;;52.15;33.60;;;;;;;;;;10217261;28;20459;-70
2021/01/29 14:02:35;;;;;;;136.93;67.45;;;;;;;;;;10217370;28;20077;-70
2021/01/29 14:07:33;;;;;;;75.45;43.55;;;;;;;;;;10217785;28;20073;-70
2021/01/29 14:12:37;;;;;;;160.82;71.70;;;;;;;;;;10215816;28;20077;-71
2021/01/29 14:17:43;;;;;;;75.75;36.00;;;;;;;;;;10215007;28;20546;-71
2021/01/29 14:22:44;;;;;;;117.65;55.60;;;;;;;;;;10216417;28;20064;-70
2021/01/29 14:27:50;;;;;;;259.17;133.15;;;;;;;;;;10217328;28;20077;-70
2021/01/29 14:32:57;;;;;;;171.38;106.53;;;;;;;;;;10215566;28;20049;-71
2021/01/29 14:38:20;;;;;;;148.43;91.90;;;;;;;;;;10213613;28;20073;-70
2021/01/29 14:43:25;;;;;;;53.85;37.15;;;;;;;;;;10214167;28;20510;-71
2021/01/29 14:48:22;;;;;;;;;;;;;;;;;;10215480;28;20088;-71
2021/01/29 14:53:26;;;;;;;141.55;80.28;;;;;;;;;;10215276;28;19960;-71
2021/01/29 14:58:29;;;;;;;109.65;65.95;;;;;;;;;;10215118;28;20128;-71
2021/01/29 15:03:29;;;;;;;93.95;58.20;;;;;;;;;;10215069;28;20076;-71
2021/01/29 15:08:29;;;;;;;80.85;47.85;;;;;;;;;;10214388;28;20085;-71
2021/01/29 15:13:44;;;;;;;59.17;35.25;;;;;;;;;;10214984;28;20065;-71
2021/01/29 15:18:41;;;;;;;67.45;37.83;;;;;;;;;;10212446;28;20077;-70
2021/01/29 15:23:39;;;;;;;87.43;42.40;;;;;;;;;;10215927;28;20084;-71
2021/01/29 15:28:39;;;;;;;46.05;28.75;;;;;;;;;;10213385;28;20503;-70
2021/01/29 15:33:39;;;;;;;160.05;85.22;;;;;;;;;;10211270;28;20076;-71
2021/01/29 15:38:41;;;;;;;373.65;165.35;;;;;;;;;;10210423;28;20100;-65
2021/01/29 15:43:56;;;;;;;380.35;189.90;;;;;;;;;;10211046;28;20072;-65
2021/01/29 15:48:55;;;;;;;427.40;217.97;;;;;;;;;;10214626;28;20104;-65
2021/01/29 15:53:54;;;;;;;209.30;112.72;;;;;;;;;;10213510;28;20069;-65
2021/01/29 15:58:52;;;;;;;185.93;103.32;;;;;;;;;;10214124;28;20494;-65
2021/01/29 16:03:50;;;;;;;186.60;105.47;;;;;;;;;;10211675;28;20518;-65
2021/01/29 16:08:48;;;;;;;170.63;93.90;;;;;;;;;;10213237;28;20080;-65
2021/01/29 16:13:47;;;;;;;169.48;92.75;;;;;;;;;;10213810;28;20069;-65
2021/01/29 16:18:52;;;;;;;171.77;94.20;;;;;;;;;;10212518;28;20478;-65
2021/01/29 16:23:49;;;;;;;185.63;101.97;;;;;;;;;;10221022;28;20104;-65
2021/01/29 16:28:49;;;;;;;201.50;94.75;;;;;;;;;;10220457;28;20074;-65
2021/01/29 16:33:46;;;;;;;77.25;46.22;;;;;;;;;;10221741;28;20081;-64
2021/01/29 16:38:45;;;;;;;65.15;37.45;;;;;;;;;;10210402;28;20431;-66
2021/01/29 16:43:42;;;;;;;73.63;44.15;;;;;;;;;;10218298;28;20569;-65
2021/01/29 16:48:40;;;;;;;47.40;29.08;;;;;;;;;;10221128;28;20100;-68
2021/01/29 16:53:40;;;;;;;34.88;23.95;;;;;;;;;;10219581;28;20072;-67
2021/01/29 16:58:39;;;;;;;80.05;38.08;;;;;;;;;;10219955;28;20057;-68
2021/01/29 17:03:43;;;;;;;30.38;20.00;;;;;;;;;;10216340;28;20065;-68
2021/01/29 17:08:41;;;;;;;31.33;20.27;;;;;;;;;;10218212;28;20076;-69
2021/01/29 17:13:39;;;;;;;27.92;16.30;;;;;;;;;;10214989;28;20061;-68
2021/01/29 17:18:36;;;;;;;91.90;36.03;;;;;;;;;;10215125;28;20081;-68
2021/01/29 17:23:35;;;;;;;142.30;45.50;;;;;;;;;;10216792;28;20077;-68
2021/01/29 17:28:36;;;;;;;181.02;56.33;;;;;;;;;;10218384;28;20073;-68
2021/01/29 17:33:35;;;;;;;100.57;38.53;;;;;;;;;;10218864;28;20098;-67
2021/01/29 17:38:34;;;;;;;133.73;52.72;;;;;;;;;;10218029;28;20080;-67
2021/01/29 17:43:34;;;;;;;96.47;40.05;;;;;;;;;;10219611;28;20058;-68
2021/01/29 17:48:33;;;;;;;101.05;36.20;;;;;;;;;;10219183;28;20066;-65
2021/01/29 17:53:38;;;;;;;98.03;37.25;;;;;;;;;;10214793;28;20088;-67
2021/01/29 17:58:36;;;;;;;;;;;;;;;;;;10214308;28;20053;-67
2021/01/29 18:03:52;;;;;;;83.78;38.75;;;;;;;;;;10218584;28;20398;-68
2021/01/29 18:08:50;;;;;;;74.72;36.58;;;;;;;;;;10217907;28;20503;-68
2021/01/29 18:13:48;;;;;;;79.13;39.05;;;;;;;;;;10216472;28;20069;-67
2021/01/29 18:18:45;;;;;;;55.90;30.20;;;;;;;;;;10217279;28;20065;-68
2021/01/29 18:23:45;;;;;;;72.13;35.03;;;;;;;;;;10216782;28;20493;-68
2021/01/29 18:28:42;;;;;;;48.30;26.95;;;;;;;;;;10216419;28;20501;-67
2021/01/29 18:33:41;;;;;;;56.13;31.00;;;;;;;;;;10217019;28;20510;-67
2021/01/29 18:38:39;;;;;;;73.57;35.80;;;;;;;;;;10215497;28;20465;-67
2021/01/29 18:43:37;;;;;;;67.32;34.25;;;;;;;;;;10216143;28;20077;-68
2021/01/29 18:48:35;;;;;;;59.58;30.83;;;;;;;;;;10212526;28;20065;-68
2021/01/29 18:53:32;;;;;;;66.22;30.08;;;;;;;;;;10216538;28;20081;-68
2021/01/29 18:58:30;;;;;;;66.75;31.45;;;;;;;;;;10214384;28;20462;-68
2021/01/29 19:03:28;;;;;;;57.72;29.92;;;;;;;;;;10215153;28;20098;-67
2021/01/29 19:08:28;;;;;;;40.88;22.48;;;;;;;;;;10214847;28;20085;-67
2021/01/29 19:13:25;;;;;;;47.53;23.42;;;;;;;;;;10214533;28;20072;-67
2021/01/29 19:18:22;;;;;;;42.10;18.77;;;;;;;;;;10214475;28;20541;-67
2021/01/29 19:23:22;;;;;;;41.92;21.95;;;;;;;;;;10212886;28;20079;-68
2021/01/29 19:28:19;;;;;;;54.38;27.58;;;;;;;;;;10210966;28;20075;-68
2021/01/29 19:33:19;;;;;;;42.35;22.42;;;;;;;;;;10215081;28;20069;-68
2021/01/29 19:38:16;;;;;;;61.40;29.08;;;;;;;;;;10213010;28;20079;-68
2021/01/29 19:43:15;;;;;;;59.15;22.30;;;;;;;;;;10214289;28;20069;-68
2021/01/29 19:48:12;;;;;;;59.17;27.58;;;;;;;;;;10213696;28;20076;-68
2021/01/29 19:53:10;;;;;;;66.20;31.10;;;;;;;;;;10213262;28;20065;-68
2021/01/29 19:58:07;;;;;;;54.72;25.80;;;;;;;;;;10213936;28;20065;-68
2021/01/29 20:03:06;;;;;;;52.83;24.00;;;;;;;;;;10212298;28;20061;-68
2021/01/29 20:08:04;;;;;;;37.60;20.75;;;;;;;;;;10209868;28;20096;-68
2021/01/29 20:13:05;;;;;;;39.55;18.33;;;;;;;;;;10210167;28;20524;-68
2021/01/29 20:18:07;;;;;;;88.70;39.95;;;;;;;;;;10209715;28;20102;-67
2021/01/29 20:23:04;;;;;;;116.90;57.30;;;;;;;;;;10209245;28;20069;-70
2021/01/29 20:28:02;;;;;;;86.05;45.60;;;;;;;;;;10213698;28;20088;-69
2021/01/29 20:32:59;;;;;;;47.42;29.67;;;;;;;;;;10212101;28;20069;-68
2021/01/29 20:37:57;;;;;;;36.90;25.27;;;;;;;;;;10212452;28;20070;-68
2021/01/29 20:42:55;;;;;;;31.60;21.35;;;;;;;;;;10212955;28;20457;-69
2021/01/29 20:47:55;;;;;;;18.02;11.68;;;;;;;;;;10211421;28;20081;-68
2021/01/29 20:52:54;;;;;;;15.23;9.38;;;;;;;;;;10212691;28;20533;-69
2021/01/29 20:57:52;;;;;;;22.92;11.20;;;;;;;;;;10211482;28;20104;-70
2021/01/29 21:02:50;;;;;;;10.65;7.22;;;;;;;;;;10212816;28;20100;-68
2021/01/29 21:07:51;;;;;;;14.63;8.35;;;;;;;;;;10210201;28;20084;-69
2021/01/29 21:12:50;;;;;;;18.77;11.02;;;;;;;;;;10215907;28;20501;-69
2021/01/29 21:17:49;;;;;;;55.78;32.30;;;;;;;;;;10215736;28;20476;-68
2021/01/29 21:22:46;;;;;;;22.42;11.77;;;;;;;;;;10219571;28;20066;-70
2021/01/29 21:27:43;;;;;;;21.30;12.65;;;;;;;;;;10218427;28;20077;-69
2021/01/29 21:32:41;;;;;;;10.98;8.45;;;;;;;;;;10218338;28;20092;-68
2021/01/29 21:37:39;;;;;;;13.18;7.18;;;;;;;;;;10219256;28;20076;-68
2021/01/29 21:42:36;;;;;;;11.38;7.97;;;;;;;;;;10217314;28;20077;-68
2021/01/29 21:47:34;;;;;;;24.25;15.00;;;;;;;;;;10219303;28;20074;-68
2021/01/29 21:52:32;;;;;;;34.95;17.23;;;;;;;;;;10214344;28;20065;-67
2021/01/29 21:57:33;;;;;;;44.95;21.70;;;;;;;;;;10217907;28;20490;-68
2021/01/29 22:02:31;;;;;;;53.17;24.48;;;;;;;;;;10216772;28;20057;-68
2021/01/29 22:07:28;;;;;;;65.53;25.35;;;;;;;;;;10217603;28;20072;-68
2021/01/29 22:12:26;;;;;;;48.13;20.55;;;;;;;;;;10216784;28;20081;-68
2021/01/29 22:17:24;;;;;;;36.42;15.18;;;;;;;;;;10214995;28;20499;-68
2021/01/29 22:22:21;;;;;;;44.70;19.38;;;;;;;;;;10217135;28;20498;-68
2021/01/29 22:27:20;;;;;;;37.10;17.25;;;;;;;;;;10215893;28;20069;-69
2021/01/29 22:32:18;;;;;;;87.63;30.05;;;;;;;;;;10213858;28;20073;-69
2021/01/29 22:37:19;;;;;;;77.88;29.02;;;;;;;;;;10217456;28;20080;-68
2021/01/29 22:42:17;;;;;;;33.13;16.52;;;;;;;;;;10214842;28;20107;-68
2021/01/29 22:47:14;;;;;;;18.55;9.55;;;;;;;;;;10200024;28;20132;-69
2021/01/29 22:52:12;;;;;;;45.97;19.67;;;;;;;;;;10211086;28;20073;-67
2021/01/29 22:57:10;;;;;;;189.68;97.18;;;;;;;;;;10214129;28;20423;-68
2021/01/29 23:02:09;;;;;;;203.20;105.18;;;;;;;;;;10214151;28;20503;-67
2021/01/29 23:07:07;;;;;;;130.27;66.90;;;;;;;;;;10215349;28;20124;-67
2021/01/29 23:12:05;;;;;;;137.30;71.00;;;;;;;;;;10213087;28;20089;-68
2021/01/29 23:17:03;;;;;;;105.47;58.05;;;;;;;;;;10212893;28;20084;-66
2021/01/29 23:22:01;;;;;;;87.78;48.42;;;;;;;;;;10210740;28;20091;-66
2021/01/29 23:26:58;;;;;;;97.32;52.78;;;;;;;;;;10215688;28;20076;-67
2021/01/29 23:31:57;;;;;;;68.18;36.13;;;;;;;;;;10213569;28;20076;-65
2021/01/29 23:36:56;;;;;;;117.28;57.88;;;;;;;;;;10213653;28;20072;-67
2021/01/29 23:41:53;;;;;;;32.05;20.17;;;;;;;;;;10214516;28;20077;-65
2021/01/29 23:46:51;;;;;;;27.00;16.88;;;;;;;;;;10213817;28;20061;-66
2021/01/29 23:51:54;;;;;;;23.55;15.35;;;;;;;;;;10214113;28;20079;-66
2021/01/29 23:56:53;;;;;;;29.40;17.35;;;;;;;;;;10213326;28;20042;-66
